Time;durP1;ratioP1;P1;durP2;ratioP2;P2;SDS_P1;SDS_P2;PMS_P1;PMS_P2;Temp;Humidity;BMP_temperature;BMP_pressure;BME280_temperature;BME280_humidity;BME280_pressure;Samples;Min_cycle;Max_cycle;Signal;HPM_P1;HPM_P2
2022/04/17 00:00:04;;;;;;;11.32;7.53;;;;;;;11.70;76.42;94790.91;5088595;28;20184;-47
2022/04/17 00:02:33;;;;;;;11.45;7.57;;;;;;;11.71;76.01;94787.28;5090504;28;20039;-44
2022/04/17 00:05:01;;;;;;;13.23;8.95;;;;;;;11.70;76.83;94781.25;5091819;28;20039;-44
2022/04/17 00:07:28;;;;;;;11.52;7.88;;;;;;;11.70;76.47;94770.03;5091061;28;20096;-43
2022/04/17 00:09:56;;;;;;;11.05;7.63;;;;;;;11.71;76.52;94771.63;5092384;28;20050;-48
2022/04/17 00:12:24;;;;;;;16.02;7.32;;;;;;;11.70;77.45;94764.81;5091020;28;20051;-43
2022/04/17 00:14:51;;;;;;;13.35;7.95;;;;;;;11.66;78.46;94765.28;5090346;28;20039;-46
2022/04/17 00:17:18;;;;;;;14.57;7.18;;;;;;;11.66;79.57;94764.50;5090574;28;20553;-45
2022/04/17 00:19:45;;;;;;;14.77;8.27;;;;;;;11.64;80.41;94764.75;5088510;28;20137;-44
2022/04/17 00:22:13;;;;;;;15.70;8.02;;;;;;;11.71;80.42;94771.63;5090330;28;20093;-44
2022/04/17 00:24:40;;;;;;;16.02;8.88;;;;;;;11.70;81.05;94770.81;5089097;28;20066;-43
2022/04/17 00:27:08;;;;;;;13.13;8.20;;;;;;;11.65;81.63;94762.94;5088953;28;20044;-46
2022/04/17 00:29:35;;;;;;;11.02;7.40;;;;;;;11.58;82.82;94773.53;5091169;28;20048;-47
2022/04/17 00:32:02;;;;;;;20.83;8.07;;;;;;;11.52;82.86;94765.88;5091261;28;20493;-44
2022/04/17 00:34:30;;;;;;;13.27;7.60;;;;;;;11.49;82.83;94761.94;5090207;28;20078;-44
2022/04/17 00:37:00;;;;;;;13.90;7.30;;;;;;;11.46;83.66;94752.75;5088747;28;20585;-45
2022/04/17 00:39:27;;;;;;;10.40;7.00;;;;;;;11.47;83.74;94756.94;5089291;28;20044;-44
2022/04/17 00:41:54;;;;;;;10.50;6.80;;;;;;;11.44;83.20;94751.41;5090048;28;21415;-45
2022/04/17 00:44:21;;;;;;;11.00;6.90;;;;;;;11.31;82.31;94730.84;5088662;28;20040;-43
2022/04/17 00:46:48;;;;;;;12.45;8.32;;;;;;;11.25;83.79;94722.16;5089679;28;20494;-43
2022/04/17 00:49:15;;;;;;;10.13;7.13;;;;;;;11.09;85.78;94705.50;5088882;28;20539;-44
2022/04/17 00:51:45;;;;;;;13.63;7.80;;;;;;;10.85;88.48;94697.81;5088667;28;20031;-43
2022/04/17 00:54:14;;;;;;;17.67;7.20;;;;;;;10.64;89.51;94711.53;5087952;28;20040;-44
2022/04/17 00:56:42;;;;;;;12.00;7.53;;;;;;;10.45;90.76;94709.13;5087836;28;20051;-44
2022/04/17 00:59:13;;;;;;;26.70;14.90;;;;;;;10.31;92.40;94718.22;5087597;28;20133;-43
2022/04/17 01:01:42;;;;;;;39.90;20.77;;;;;;;10.36;91.81;94723.53;5088254;28;20058;-44
2022/04/17 01:04:09;;;;;;;17.27;9.45;;;;;;;10.42;90.98;94719.19;5089578;28;20043;-45
2022/04/17 01:06:39;;;;;;;10.73;7.22;;;;;;;10.38;91.66;94716.28;5089583;28;20441;-44
2022/04/17 01:09:06;;;;;;;13.40;8.63;;;;;;;10.39;92.25;94723.06;5090969;28;20044;-44
2022/04/17 01:11:38;;;;;;;15.73;8.90;;;;;;;10.23;93.43;94726.38;5090480;28;20048;-44
2022/04/17 01:14:07;;;;;;;13.55;8.82;;;;;;;10.12;93.88;94720.97;5092261;28;20100;-44
2022/04/17 01:16:38;;;;;;;16.52;9.30;;;;;;;10.12;94.80;94720.97;5089889;28;20051;-44
2022/04/17 01:19:15;;;;;;;14.05;8.52;;;;;;;10.13;95.13;94712.13;5090592;28;20105;-48
2022/04/17 01:21:43;;;;;;;15.10;8.50;;;;;;;10.19;94.81;94709.63;5089810;28;20059;-44
2022/04/17 01:27:00;;;;;;;13.20;8.95;;;;;;;10.30;92.58;94711.41;5088959;28;20051;-49
2022/04/17 01:29:34;;;;;;;15.85;8.77;;;;;;;10.24;90.14;94704.53;5090238;28;20036;-46
2022/04/17 01:32:04;;;;;;;21.23;10.93;;;;;;;10.24;89.79;94707.13;5089295;28;20512;-46
2022/04/17 01:34:31;;;;;;;12.82;8.57;;;;;;;10.21;89.50;94711.00;5090025;28;20059;-44
2022/04/17 01:36:59;;;;;;;10.95;7.18;;;;;;;10.03;89.08;94701.53;5088734;28;20039;-45
2022/04/17 01:39:25;;;;;;;11.63;7.55;;;;;;;9.96;90.49;94716.47;5090125;28;20047;-45
2022/04/17 01:41:53;;;;;;;17.33;9.57;;;;;;;9.97;91.40;94710.25;5089629;28;20052;-45
2022/04/17 01:44:21;;;;;;;13.00;8.35;;;;;;;9.96;92.18;94708.66;5089634;28;20979;-44
2022/04/17 01:46:48;;;;;;;14.60;8.82;;;;;;;9.68;91.33;94652.94;5088510;28;20501;-43
2022/04/17 01:49:16;;;;;;;12.50;7.72;;;;;;;9.93;92.49;94701.31;5089013;28;20055;-45
2022/04/17 01:51:45;;;;;;;18.05;9.05;;;;;;;9.70;94.34;94696.94;5087570;28;20048;-43
2022/04/17 01:54:14;;;;;;;14.70;8.68;;;;;;;9.77;96.08;94697.59;5087274;28;20044;-44
2022/04/17 01:56:42;;;;;;;17.13;9.00;;;;;;;9.56;97.19;94685.97;5088396;28;20036;-44
2022/04/17 01:59:09;;;;;;;16.40;10.25;;;;;;;9.29;100.00;94702.06;5089955;28;20044;-43
2022/04/17 02:01:38;;;;;;;15.15;9.25;;;;;;;9.19;100.00;94701.81;5088794;28;20402;-44
2022/04/17 02:04:06;;;;;;;15.68;9.40;;;;;;;9.15;100.00;94713.69;5089554;28;20047;-43
2022/04/17 02:06:34;;;;;;;14.35;9.32;;;;;;;9.18;100.00;94700.22;5088816;28;20040;-44
2022/04/17 02:09:02;;;;;;;17.08;11.13;;;;;;;9.17;100.00;94709.06;5088651;28;20104;-44
2022/04/17 02:11:29;;;;;;;18.15;11.10;;;;;;;9.20;100.00;94706.00;5088912;28;20059;-46
2022/04/17 02:13:57;;;;;;;12.35;8.20;;;;;;;9.11;100.00;94702.13;5088431;28;20725;-46
2022/04/17 02:16:24;;;;;;;13.32;8.65;;;;;;;9.18;100.00;94692.44;5088335;28;20044;-43
2022/04/17 02:18:54;;;;;;;13.95;9.02;;;;;;;9.10;100.00;94682.38;5088333;28;20580;-45
2022/04/17 02:21:21;;;;;;;16.60;9.60;;;;;;;9.07;100.00;94677.63;5088720;28;20539;-43
2022/04/17 02:23:48;;;;;;;15.50;8.52;;;;;;;9.12;100.00;94680.34;5088630;28;20043;-42
2022/04/17 02:26:19;;;;;;;22.25;9.45;;;;;;;9.12;100.00;94668.13;5088002;28;20039;-43
2022/04/17 02:28:46;;;;;;;19.08;9.45;;;;;;;9.17;100.00;94662.28;5088007;28;20044;-43
2022/04/17 02:31:16;;;;;;;31.48;18.20;;;;;;;9.23;100.00;94674.34;5087981;28;20036;-43
2022/04/17 02:33:43;;;;;;;18.73;10.90;;;;;;;9.29;100.00;94670.06;5068074;28;20044;-45
2022/04/17 02:36:09;;;;;;;14.52;9.43;;;;;;;9.43;100.00;94681.03;5086147;28;20455;-44
2022/04/17 02:38:36;;;;;;;14.20;8.70;;;;;;;9.46;100.00;94670.19;5086852;28;20044;-44
2022/04/17 02:41:03;;;;;;;15.35;9.32;;;;;;;9.55;100.00;94679.22;5087109;28;20406;-43
2022/04/17 02:43:30;;;;;;;16.00;9.25;;;;;;;9.63;100.00;94681.44;5088854;28;20051;-45
2022/04/17 02:45:57;;;;;;;12.50;8.65;;;;;;;9.66;100.00;94678.41;5088920;28;20047;-45
2022/04/17 02:48:24;;;;;;;16.50;9.95;;;;;;;9.69;100.00;94669.38;5089210;28;20074;-44
2022/04/17 02:50:51;;;;;;;14.80;8.93;;;;;;;9.76;100.00;94676.03;5087255;28;20040;-45
2022/04/17 02:53:18;;;;;;;15.63;8.77;;;;;;;9.80;100.00;94678.16;5088310;28;20082;-43
2022/04/17 02:55:45;;;;;;;14.05;9.57;;;;;;;9.79;100.00;94668.78;5088479;28;20443;-44
2022/04/17 02:58:11;;;;;;;16.85;10.15;;;;;;;9.77;100.00;94666.41;5089599;28;20091;-42
2022/04/17 03:05:36;;;;;;;16.90;10.27;;;;;;;9.81;100.00;94677.13;5092392;28;20040;-42
2022/04/17 03:06:13;;;;;;;19.52;11.10;;;;;;;9.82;100.00;94673.53;5091608;28;20044;-43
2022/04/17 03:08:40;;;;;;;27.92;12.70;;;;;;;9.75;100.00;94658.81;5091317;28;20040;-41
2022/04/17 03:11:07;;;;;;;22.63;12.25;;;;;;;9.82;100.00;94670.94;5091637;28;20103;-41
2022/04/17 03:13:34;;;;;;;17.02;11.25;;;;;;;9.86;100.00;94674.63;5091211;28;20102;-41
2022/04/17 03:16:01;;;;;;;19.20;10.80;;;;;;;9.88;100.00;94677.81;5091150;28;20048;-43
2022/04/17 03:18:29;;;;;;;16.70;10.55;;;;;;;9.89;100.00;94682.00;5090745;28;20051;-43
2022/04/17 03:20:58;;;;;;;16.27;9.95;;;;;;;9.87;100.00;94676.25;5090854;28;20451;-41
2022/04/17 03:23:25;;;;;;;14.18;9.63;;;;;;;9.89;100.00;94679.41;5091073;28;20531;-43
2022/04/17 03:25:53;;;;;;;15.35;10.05;;;;;;;9.86;100.00;94685.03;5090770;28;20036;-44
2022/04/17 03:28:20;;;;;;;17.00;9.80;;;;;;;9.84;100.00;94681.88;5090245;28;20054;-45
2022/04/17 03:30:46;;;;;;;17.25;9.88;;;;;;;9.81;100.00;94684.94;5091376;28;20048;-44
2022/04/17 03:33:13;;;;;;;13.75;9.57;;;;;;;9.80;100.00;94685.97;5091226;28;20051;-43
2022/04/17 03:35:40;;;;;;;16.92;9.73;;;;;;;9.77;100.00;94682.00;5091014;28;20050;-42
2022/04/17 03:38:09;;;;;;;16.00;9.15;;;;;;;9.66;100.00;94665.41;5089032;28;20558;-47
2022/04/17 03:40:36;;;;;;;15.38;10.15;;;;;;;9.69;100.00;94675.34;5091148;28;20040;-47
2022/04/17 03:43:04;;;;;;;16.13;8.93;;;;;;;9.67;100.00;94685.19;5090972;28;20101;-43
2022/04/17 03:45:31;;;;;;;16.00;9.30;;;;;;;9.62;100.00;94685.09;5090703;28;20040;-43
2022/04/17 03:47:59;;;;;;;15.23;9.50;;;;;;;9.66;100.00;94696.59;5090792;28;20498;-45
2022/04/17 03:50:26;;;;;;;14.50;8.77;;;;;;;9.56;100.00;94696.38;5090501;28;20432;-43
2022/04/17 03:52:54;;;;;;;14.48;9.68;;;;;;;9.62;100.00;94700.69;5090546;28;20123;-43
2022/04/17 03:55:21;;;;;;;15.52;9.73;;;;;;;9.52;100.00;94700.47;5090598;28;20497;-43
2022/04/17 03:57:48;;;;;;;16.77;10.35;;;;;;;9.50;100.00;94697.31;5090602;28;20048;-43
2022/04/17 04:00:16;;;;;;;17.48;9.75;;;;;;;9.38;100.00;94700.69;5090075;28;20090;-43
2022/04/17 04:02:43;;;;;;;15.65;9.63;;;;;;;9.37;100.00;94699.09;5088940;28;20052;-44
2022/04/17 04:05:11;;;;;;;15.80;9.90;;;;;;;9.43;100.00;94707.03;5090138;28;20094;-44
2022/04/17 04:07:39;;;;;;;17.30;10.48;;;;;;;9.32;100.00;94706.78;5088714;28;20062;-43
2022/04/17 04:10:08;;;;;;;17.63;10.10;;;;;;;9.34;100.00;94696.94;5088041;28;20044;-43
2022/04/17 04:12:36;;;;;;;15.75;9.85;;;;;;;9.44;100.00;94699.00;5088878;28;20801;-45
2022/04/17 04:15:04;;;;;;;18.60;10.55;;;;;;;9.47;100.00;94700.34;5088733;28;20036;-43
2022/04/17 04:17:32;;;;;;;18.70;10.90;;;;;;;9.51;100.00;94698.91;5090112;28;20506;-44
2022/04/17 04:19:58;;;;;;;15.57;9.80;;;;;;;9.53;100.00;94691.66;5088631;28;20430;-44
2022/04/17 04:22:25;;;;;;;15.20;10.38;;;;;;;9.57;100.00;94703.16;5088491;28;20064;-44
2022/04/17 04:24:52;;;;;;;17.40;10.10;;;;;;;9.60;100.00;94700.13;5088644;28;20044;-44
2022/04/17 04:30:04;;;;;;;13.32;9.38;;;;;;;9.62;100.00;94695.50;5088832;28;20566;-45
2022/04/17 04:32:31;;;;;;;15.50;9.20;;;;;;;9.55;100.00;94694.81;5088904;28;20059;-44
2022/04/17 04:35:04;;;;;;;13.90;8.52;;;;;;;9.63;100.00;94697.06;5088411;28;20044;-44
2022/04/17 04:37:32;;;;;;;17.42;8.90;;;;;;;9.66;100.00;94696.59;5087547;28;20051;-44
2022/04/17 04:39:59;;;;;;;15.80;10.15;;;;;;;9.66;100.00;94696.59;5088871;28;20055;-42
2022/04/17 04:42:27;;;;;;;59.20;27.63;;;;;;;9.61;100.00;94704.28;5088062;28;20035;-44
2022/04/17 04:47:40;;;;;;;13.02;7.07;;;;;;;9.54;100.00;94685.41;5087954;28;20040;-42
2022/04/17 04:50:07;;;;;;;10.82;8.00;;;;;;;9.45;100.00;94676.38;5088295;28;20047;-42
2022/04/17 04:52:35;;;;;;;11.57;7.70;;;;;;;9.50;99.64;94697.31;5087476;28;20040;-44
2022/04/17 04:55:04;;;;;;;12.18;8.05;;;;;;;9.37;98.70;94688.72;5088598;28;20492;-43
2022/04/17 04:57:31;;;;;;;188.75;75.97;;;;;;;9.26;98.71;94686.91;5088354;28;20100;-42
2022/04/17 04:59:57;;;;;;;18.00;11.00;;;;;;;9.20;99.30;94677.44;5089640;28;20580;-43
2022/04/17 05:02:24;;;;;;;9.27;5.55;;;;;;;9.09;100.00;94675.59;5088376;28;20475;-44
2022/04/17 05:04:51;;;;;;;7.85;5.28;;;;;;;9.04;100.00;94672.88;5088444;28;20036;-47
2022/04/17 05:07:18;;;;;;;7.93;6.82;;;;;;;8.79;100.00;94684.25;5088167;28;20040;-44
2022/04/17 05:09:44;;;;;;;5.47;3.45;;;;;;;8.59;100.00;94677.53;5087841;28;20040;-44
2022/04/17 05:12:11;;;;;;;5.70;3.85;;;;;;;8.45;100.00;94676.16;5087737;28;20044;-46
2022/04/17 05:14:41;;;;;;;6.63;3.47;;;;;;;8.22;100.00;94682.78;5084344;28;20048;-44
2022/04/17 05:17:08;;;;;;;7.88;4.80;;;;;;;8.10;100.00;94668.97;5085595;28;20094;-47
2022/04/17 05:19:35;;;;;;;6.70;4.55;;;;;;;8.24;100.00;94680.75;5088578;28;20538;-48
2022/04/17 05:22:02;;;;;;;8.88;5.30;;;;;;;8.26;100.00;94682.38;5086186;28;20062;-46
2022/04/17 05:24:30;;;;;;;18.60;10.68;;;;;;;8.27;100.00;94681.38;5087591;28;20078;-43
2022/04/17 05:26:59;;;;;;;22.23;16.08;;;;;;;8.35;100.00;94670.66;5087257;28;20038;-43
2022/04/17 05:29:26;;;;;;;22.83;11.77;;;;;;;8.56;100.00;94682.38;5087228;28;20036;-43
2022/04/17 05:31:53;;;;;;;21.48;14.35;;;;;;;8.66;100.00;94676.66;5087246;28;20040;-44
2022/04/17 05:34:20;;;;;;;48.22;30.30;;;;;;;8.71;100.00;94689.75;5088479;28;20097;-46
2022/04/17 05:36:46;;;;;;;16.92;10.45;;;;;;;8.87;100.00;94688.34;5087029;28;20044;-45
2022/04/17 05:39:13;;;;;;;35.25;19.67;;;;;;;8.96;100.00;94687.00;5087494;28;20044;-43
2022/04/17 05:41:40;;;;;;;17.80;10.35;;;;;;;8.89;100.00;94681.88;5088830;28;20051;-43
2022/04/17 05:44:08;;;;;;;17.17;9.98;;;;;;;8.93;100.00;94677.84;5088995;28;20452;-46
2022/04/17 05:46:36;;;;;;;10.80;6.47;;;;;;;8.76;100.00;94682.09;5088537;28;20506;-47
2022/04/17 05:49:05;;;;;;;11.90;5.00;;;;;;;8.19;100.00;94682.44;5088148;28;20582;-47
2022/04/17 05:51:36;;;;;;;10.65;6.32;;;;;;;8.04;100.00;94690.59;5089215;28;20576;-46
2022/04/17 05:54:07;;;;;;;9.40;4.70;;;;;;;7.89;100.00;94691.00;5088710;28;20101;-45
2022/04/17 05:56:37;;;;;;;10.20;5.43;;;;;;;7.85;100.00;94687.25;5072620;28;20048;-42
2022/04/17 05:59:07;;;;;;;6.78;3.85;;;;;;;7.69;100.00;94688.63;5089481;28;20066;-43
2022/04/17 06:01:34;;;;;;;8.93;4.05;;;;;;;7.81;100.00;94686.91;5085857;28;20043;-43
2022/04/17 06:04:02;;;;;;;6.68;4.68;;;;;;;7.85;100.00;94682.84;5087503;28;20097;-43
2022/04/17 06:06:28;;;;;;;6.43;3.92;;;;;;;7.85;100.00;94682.84;5089784;28;20125;-42
2022/04/17 06:08:55;;;;;;;6.72;4.18;;;;;;;8.00;100.00;94679.09;5089389;28;20036;-48
2022/04/17 06:11:22;;;;;;;8.85;5.15;;;;;;;7.96;100.00;94672.75;5089379;28;20452;-41
2022/04/17 06:13:55;;;;;;;7.43;4.20;;;;;;;8.03;100.00;94668.25;5089480;28;20050;-42
2022/04/17 06:16:22;;;;;;;9.38;5.57;;;;;;;8.03;100.00;94673.44;5087932;28;20048;-44
2022/04/17 06:18:49;;;;;;;9.55;6.50;;;;;;;8.11;100.00;94660.19;5088075;28;20111;-42
2022/04/17 06:21:18;;;;;;;6.22;3.67;;;;;;;8.06;100.00;94657.47;5087032;28;20063;-41
2022/04/17 06:23:45;;;;;;;5.97;2.78;;;;;;;8.04;100.00;94670.66;5088401;28;20390;-45
2022/04/17 06:26:11;;;;;;;7.85;3.60;;;;;;;8.06;100.00;94662.66;5089111;28;20318;-41
2022/04/17 06:28:38;;;;;;;19.92;9.38;;;;;;;8.18;100.00;94673.88;5089468;28;20047;-44
2022/04/17 06:31:07;;;;;;;11.60;6.40;;;;;;;8.22;100.00;94677.59;5088653;28;20040;-44
2022/04/17 06:33:34;;;;;;;7.57;4.15;;;;;;;8.32;100.00;94665.91;5072783;28;20064;-44
2022/04/17 06:36:01;;;;;;;6.05;3.83;;;;;;;8.35;100.00;94670.66;5092297;28;20051;-43
2022/04/17 06:38:28;;;;;;;4.78;2.90;;;;;;;8.42;100.00;94671.38;5091154;28;20068;-43
2022/04/17 06:40:55;;;;;;;4.45;2.40;;;;;;;8.36;100.00;94677.44;5092551;28;20040;-43
2022/04/17 06:43:21;;;;;;;3.63;2.38;;;;;;;8.42;100.00;94672.19;5072507;28;20044;-47
2022/04/17 06:45:48;;;;;;;5.38;2.78;;;;;;;8.54;100.00;94674.81;5092410;28;20044;-43
2022/04/17 06:48:17;;;;;;;6.45;2.88;;;;;;;8.64;100.00;94678.69;5092549;28;20405;-44
2022/04/17 06:50:45;;;;;;;4.90;3.00;;;;;;;8.73;100.00;94679.94;5090432;28;20044;-44
2022/04/17 06:53:12;;;;;;;5.03;2.45;;;;;;;8.78;100.00;94680.06;5089996;28;20048;-44
2022/04/17 06:55:39;;;;;;;5.03;2.67;;;;;;;8.59;100.00;94667.16;5091237;28;20036;-45
2022/04/17 06:58:07;;;;;;;8.25;3.83;;;;;;;8.57;100.00;94664.00;5091441;28;20063;-43
2022/04/17 07:00:35;;;;;;;5.20;3.58;;;;;;;8.59;100.00;94672.34;5091710;28;20036;-43
2022/04/17 07:03:03;;;;;;;5.63;3.25;;;;;;;8.61;100.00;94670.31;5091357;28;20047;-45
2022/04/17 07:05:31;;;;;;;6.80;3.97;;;;;;;8.71;100.00;94674.19;5091113;28;20040;-44
2022/04/17 07:08:04;;;;;;;5.40;3.60;;;;;;;8.91;100.00;94682.47;5091881;28;20524;-43
2022/04/17 07:10:32;;;;;;;5.43;2.78;;;;;;;8.99;100.00;94682.13;5092004;28;20052;-43
2022/04/17 07:12:59;;;;;;;7.18;2.95;;;;;;;9.18;100.00;94679.44;5093600;28;20039;-46
2022/04/17 07:15:26;;;;;;;6.10;3.70;;;;;;;9.21;100.00;94684.19;5091461;28;20040;-42
2022/04/17 07:17:54;;;;;;;8.60;3.33;;;;;;;9.34;100.00;94685.78;5091519;28;20039;-47
2022/04/17 07:20:21;;;;;;;7.40;4.43;;;;;;;9.38;100.00;94679.91;5091073;28;20066;-44
2022/04/17 07:22:49;;;;;;;5.03;2.78;;;;;;;9.25;100.00;94677.50;5091378;28;20047;-45
2022/04/17 07:25:19;;;;;;;5.65;3.75;;;;;;;9.24;100.00;94681.16;5088442;28;20542;-44
2022/04/17 07:27:49;;;;;;;8.00;3.47;;;;;;;9.42;100.00;94687.22;5090072;28;20042;-45
2022/04/17 07:30:20;;;;;;;9.73;5.95;;;;;;;9.48;100.00;94691.53;5089491;28;20064;-47
2022/04/17 07:32:52;;;;;;;5.50;3.42;;;;;;;9.52;100.00;94684.88;5089880;28;20460;-45
2022/04/17 07:35:20;;;;;;;7.15;2.88;;;;;;;9.56;100.00;94686.78;5087566;28;20056;-45
2022/04/17 07:37:52;;;;;;;8.68;3.90;;;;;;;9.65;100.00;94684.63;5087975;28;20421;-46
2022/04/17 07:40:21;;;;;;;5.93;3.00;;;;;;;9.54;100.00;94682.81;5090269;28;20045;-44
2022/04/17 07:42:49;;;;;;;4.28;3.08;;;;;;;9.77;100.00;94682.78;5090466;28;20040;-43
2022/04/17 07:45:18;;;;;;;11.02;5.20;;;;;;;9.87;100.00;94678.84;5084709;28;20079;-42
2022/04/17 07:47:44;;;;;;;7.72;4.10;;;;;;;9.91;100.00;94683.34;5087267;28;20032;-45
2022/04/17 07:50:14;;;;;;;5.18;2.20;;;;;;;10.04;100.00;94681.50;5091482;28;20071;-42
2022/04/17 07:52:42;;;;;;;7.97;4.00;;;;;;;10.08;100.00;94677.41;5084221;28;20040;-44
2022/04/17 07:55:11;;;;;;;2.72;1.75;;;;;;;9.97;100.00;94686.81;5087498;28;20129;-42
2022/04/17 08:00:51;;;;;;;4.68;3.08;;;;;;;10.07;100.00;94681.81;5041474;28;20067;-43
2022/04/17 08:03:20;;;;;;;5.00;2.88;;;;;;;10.07;100.00;94671.41;5090083;28;20054;-42
2022/04/17 08:05:49;;;;;;;26.70;13.40;;;;;;;10.28;100.00;94677.00;5090796;28;20114;-44
2022/04/17 08:08:16;;;;;;;16.98;8.00;;;;;;;10.41;100.00;94676.75;5089726;28;20036;-47
2022/04/17 08:10:43;;;;;;;16.20;7.35;;;;;;;10.45;100.00;94662.25;5090151;28;20073;-41
2022/04/17 08:13:10;;;;;;;7.30;3.95;;;;;;;10.29;99.34;94668.19;5088356;28;20436;-45
2022/04/17 08:15:37;;;;;;;4.88;3.30;;;;;;;10.41;99.46;94655.94;5088378;28;20433;-46
2022/04/17 08:18:04;;;;;;;5.10;2.63;;;;;;;10.70;100.00;94654.06;5090976;28;20093;-46
2022/04/17 08:20:31;;;;;;;4.50;2.55;;;;;;;10.99;100.00;94656.63;5088910;28;20068;-48
2022/04/17 08:22:58;;;;;;;5.57;2.92;;;;;;;11.18;100.00;94658.97;5087702;28;20044;-46
2022/04/17 08:25:25;;;;;;;3.80;2.50;;;;;;;11.35;100.00;94658.97;5066374;28;20039;-43
2022/04/17 08:27:53;;;;;;;5.57;2.55;;;;;;;11.31;97.69;94647.41;5088688;28;20472;-46
2022/04/17 08:30:22;;;;;;;4.03;2.22;;;;;;;11.42;97.53;94664.81;5089933;28;20160;-43
2022/04/17 08:32:49;;;;;;;4.72;2.95;;;;;;;11.55;100.00;94654.03;5088201;28;20117;-48
2022/04/17 08:35:16;;;;;;;8.88;4.55;;;;;;;11.71;99.89;94667.28;5089422;28;20048;-45
2022/04/17 08:37:44;;;;;;;4.18;2.60;;;;;;;11.60;95.77;94661.91;5088164;28;20060;-46
2022/04/17 08:40:11;;;;;;;5.80;2.58;;;;;;;11.58;95.51;94658.78;5086100;28;20092;-44
2022/04/17 08:42:39;;;;;;;2.72;1.70;;;;;;;11.67;96.12;94659.16;5085584;28;22056;-45
2022/04/17 08:45:10;;;;;;;2.60;1.77;;;;;;;11.56;95.52;94655.63;5069286;28;20117;-43
2022/04/17 08:47:38;;;;;;;9.32;3.20;;;;;;;11.45;95.48;94659.09;5087558;28;20052;-43
2022/04/17 08:50:16;;;;;;;8.10;4.97;;;;;;;11.45;96.57;94661.69;5085633;28;20048;-44
2022/04/17 08:52:50;;;;;;;8.05;4.78;;;;;;;11.49;98.31;94665.44;5085761;28;20117;-44
2022/04/17 08:55:17;;;;;;;23.55;11.65;;;;;;;11.35;100.00;94658.97;5087432;28;20105;-43
2022/04/17 08:57:44;;;;;;;12.88;6.68;;;;;;;11.45;99.21;94664.31;5090193;28;20113;-45
2022/04/17 09:00:16;;;;;;;7.90;3.72;;;;;;;11.41;99.49;94668.44;5088632;28;20090;-43
2022/04/17 09:02:44;;;;;;;30.58;16.45;;;;;;;11.28;98.11;94654.69;5089365;28;20040;-42
2022/04/17 09:05:13;;;;;;;20.98;11.13;;;;;;;11.55;100.00;94664.47;5070553;28;20044;-46
2022/04/17 09:07:55;;;;;;;2.97;2.13;;;;;;;11.65;98.20;94666.44;5091123;28;20052;-44
2022/04/17 09:10:27;;;;;;;4.80;3.50;;;;;;;11.82;98.13;94653.31;5089516;28;20541;-48
2022/04/17 09:12:57;;;;;;;5.32;2.78;;;;;;;11.95;97.74;94658.19;5090211;28;20495;-44
2022/04/17 09:15:25;;;;;;;4.07;2.35;;;;;;;11.49;95.86;94652.38;5089191;28;20040;-43
2022/04/17 09:17:52;;;;;;;4.07;2.20;;;;;;;11.59;98.48;94655.13;5089316;28;20044;-44
2022/04/17 09:20:22;;;;;;;3.20;2.40;;;;;;;11.36;100.00;94647.50;5090085;28;20453;-43
2022/04/17 09:23:04;;;;;;;2.60;1.30;;;;;;;11.49;100.00;94641.97;5053670;28;21986;-43
2022/04/17 09:25:30;;;;;;;3.25;1.70;;;;;;;11.77;100.00;94640.22;5088248;28;20043;-47
2022/04/17 09:28:06;;;;;;;2.33;1.40;;;;;;;12.00;100.00;94640.00;5087367;28;20047;-43
2022/04/17 09:30:39;;;;;;;2.28;1.50;;;;;;;12.18;100.00;94635.50;5090760;28;20109;-44
2022/04/17 09:33:09;;;;;;;5.28;3.35;;;;;;;12.29;99.87;94642.38;5089389;28;20046;-48
2022/04/17 09:35:36;;;;;;;5.47;1.77;;;;;;;12.26;99.33;94637.66;5086859;28;20067;-43
2022/04/17 09:38:05;;;;;;;1.60;0.90;;;;;;;12.01;94.68;94631.13;5086611;28;20699;-46
2022/04/17 09:40:33;;;;;;;1.15;0.50;;;;;;;11.69;95.52;94622.38;5088130;28;20047;-45
2022/04/17 09:43:18;;;;;;;1.48;0.50;;;;;;;11.18;98.33;94615.47;5090551;28;20097;-42
2022/04/17 09:45:57;;;;;;;1.90;0.45;;;;;;;10.98;97.71;94602.13;5088976;28;20421;-43
2022/04/17 09:48:25;;;;;;;3.33;1.60;;;;;;;10.49;100.00;94606.06;5089374;28;20447;-43
2022/04/17 09:50:51;;;;;;;1.23;0.70;;;;;;;10.41;100.00;94609.06;5090048;28;20112;-42
2022/04/17 09:53:37;;;;;;;2.20;1.17;;;;;;;10.51;100.00;94609.25;5089619;28;20051;-42
2022/04/17 09:56:10;;;;;;;2.50;1.35;;;;;;;10.46;100.00;94611.75;5088927;28;20463;-42
2022/04/17 09:58:48;;;;;;;3.70;0.70;;;;;;;10.46;99.41;94616.97;5088909;28;20109;-41
2022/04/17 10:01:16;;;;;;;1.67;1.20;;;;;;;10.60;100.00;94608.84;5089928;28;20050;-42
2022/04/17 10:03:43;;;;;;;3.53;2.30;;;;;;;10.69;100.00;94610.81;5089423;28;20040;-44
2022/04/17 10:06:11;;;;;;;4.03;0.65;;;;;;;10.74;98.79;94606.72;5089955;28;20062;-42
2022/04/17 10:08:44;;;;;;;2.53;0.80;;;;;;;10.75;100.00;94598.69;5093863;28;20042;-42
2022/04/17 10:11:14;;;;;;;0.47;0.32;;;;;;;10.67;97.55;94596.47;5090628;28;20048;-44
2022/04/17 10:13:42;;;;;;;0.40;0.32;;;;;;;10.49;98.27;94606.06;5093844;28;20036;-44
2022/04/17 10:16:09;;;;;;;13.15;5.32;;;;;;;10.34;98.45;94598.03;5093012;28;20516;-42
2022/04/17 10:18:42;;;;;;;0.95;0.52;;;;;;;10.37;100.00;94594.94;5093862;28;20489;-42
2022/04/17 10:21:10;;;;;;;1.13;0.10;;;;;;;10.52;100.00;94589.97;5092682;28;20048;-45
2022/04/17 10:23:42;;;;;;;4.30;0.20;;;;;;;10.39;97.19;94590.28;5094056;28;20048;-43
2022/04/17 10:26:13;;;;;;;0.22;0.13;;;;;;;10.37;97.47;94581.94;5093551;28;20040;-43
2022/04/17 10:28:44;;;;;;;0.20;0.10;;;;;;;10.36;100.00;94569.94;5092793;28;20044;-42
2022/04/17 10:31:19;;;;;;;2.38;0.52;;;;;;;10.48;99.58;94581.06;5095290;28;20043;-42
2022/04/17 10:34:07;;;;;;;6.90;1.75;;;;;;;10.68;99.41;94577.22;5091879;28;20050;-44
2022/04/17 10:37:18;;;;;;;0.98;0.30;;;;;;;10.50;95.18;94581.63;5091047;28;20555;-43
2022/04/17 10:39:51;;;;;;;0.20;0.10;;;;;;;10.19;93.71;94582.09;5091232;28;20506;-45
2022/04/17 10:42:18;;;;;;;0.52;0.20;;;;;;;9.95;94.66;94579.59;5092536;28;20035;-45
2022/04/17 10:45:00;;;;;;;0.20;0.10;;;;;;;9.81;96.44;94573.88;5093194;28;20036;-45
2022/04/17 10:47:29;;;;;;;0.20;0.10;;;;;;;9.64;95.22;94579.03;5093466;28;20044;-45
2022/04/17 10:49:57;;;;;;;0.20;0.10;;;;;;;9.67;97.72;94568.19;5074648;28;20040;-46
2022/04/17 10:52:31;;;;;;;0.30;0.05;;;;;;;9.69;97.32;94576.53;5091517;28;20048;-42
2022/04/17 10:55:09;;;;;;;5.07;0.40;;;;;;;9.70;99.45;94566.91;5092080;28;20044;-44
2022/04/17 10:57:47;;;;;;;0.30;0.20;;;;;;;9.71;98.38;94558.88;5092466;28;20047;-45
2022/04/17 11:00:36;;;;;;;0.55;0.20;;;;;;;9.85;100.00;94558.59;5091312;28;20040;-42
2022/04/17 11:03:23;;;;;;;0.80;0.30;;;;;;;9.81;98.63;94563.47;5090034;28;20413;-44
2022/04/17 11:08:51;;;;;;;0.50;0.10;;;;;;;9.66;96.72;94561.38;5093947;28;20051;-43
2022/04/17 11:11:18;;;;;;;0.40;0.20;;;;;;;9.55;97.56;94560.41;5070641;28;20048;-42
2022/04/17 11:14:07;;;;;;;0.40;0.20;;;;;;;9.48;98.68;94558.97;5090143;28;20103;-44
2022/04/17 11:16:39;;;;;;;0.30;0.10;;;;;;;9.40;97.41;94557.50;5088293;28;20074;-45
2022/04/17 11:19:10;;;;;;;0.52;0.20;;;;;;;9.43;99.47;94564.06;5086660;28;20048;-42
2022/04/17 11:21:41;;;;;;;0.30;0.20;;;;;;;9.28;96.18;94557.53;5088777;28;20044;-45
2022/04/17 11:24:08;;;;;;;1.05;0.20;;;;;;;9.22;97.96;94561.06;5066958;28;20040;-46
2022/04/17 11:26:53;;;;;;;0.20;0.10;;;;;;;9.29;98.82;94561.72;5086643;28;20043;-43
2022/04/17 11:29:59;;;;;;;0.40;0.20;;;;;;;9.34;96.42;94559.19;5092306;28;20406;-44
2022/04/17 11:32:29;;;;;;;0.40;0.20;;;;;;;9.29;98.57;94572.13;4985912;28;20058;-44
2022/04/17 11:34:57;;;;;;;0.68;0.45;;;;;;;9.30;98.47;94567.69;4984996;28;20046;-42
2022/04/17 11:37:31;;;;;;;0.75;0.28;;;;;;;9.37;96.47;94568.38;5039046;28;20044;-42
2022/04/17 11:40:09;;;;;;;0.40;0.10;;;;;;;9.27;93.43;94568.16;5088723;28;20044;-42
2022/04/17 11:42:51;;;;;;;0.40;0.17;;;;;;;9.18;94.91;94552.13;5090466;28;20058;-43
2022/04/17 11:45:26;;;;;;;0.40;0.10;;;;;;;9.26;96.72;94546.56;5087221;28;20509;-43
2022/04/17 11:47:55;;;;;;;0.30;0.20;;;;;;;9.34;94.63;94559.19;5088153;28;20044;-43
2022/04/17 11:50:27;;;;;;;0.30;0.20;;;;;;;9.37;92.34;94548.34;5086812;28;20542;-41
2022/04/17 11:53:02;;;;;;;0.20;0.10;;;;;;;9.34;94.65;94548.81;5090094;28;20060;-44
2022/04/17 11:55:35;;;;;;;0.13;0.10;;;;;;;9.31;94.75;94553.66;5088340;28;20482;-42